Time;durP1;ratioP1;P1;durP2;ratioP2;P2;SDS_P1;SDS_P2;PMS_P1;PMS_P2;Temp;Humidity;BMP_temperature;BMP_pressure;BME280_temperature;BME280_humidity;BME280_pressure;Samples;Min_cycle;Max_cycle;Signal;HPM_P1;HPM_P2
2023/02/06 00:01:22;;;;;;;6.03;3.88;;;;;;;-2.61;62.65;100452.97;4931369;28;20055;-95
2023/02/06 00:03:48;;;;;;;4.63;3.40;;;;;;;-2.70;62.32;100467.91;4931761;28;20035;-95
2023/02/06 00:06:14;;;;;;;3.83;2.70;;;;;;;-2.67;63.70;100461.50;4946867;28;20034;-95
2023/02/06 00:08:39;;;;;;;5.63;3.42;;;;;;;-2.90;63.55;100445.38;4929657;28;20041;-95
2023/02/06 00:11:06;;;;;;;8.57;3.50;;;;;;;-2.78;63.24;100457.31;4931384;28;20417;-95
2023/02/06 00:13:32;;;;;;;6.10;3.67;;;;;;;-2.73;62.95;100449.75;4930936;28;20480;-95
2023/02/06 00:16:01;;;;;;;7.63;3.67;;;;;;;-2.56;62.26;100458.56;4946742;28;20039;-95
2023/02/06 00:18:26;;;;;;;5.68;3.85;;;;;;;-2.49;61.74;100469.31;4946439;28;20027;-95
2023/02/06 00:20:52;;;;;;;7.70;4.05;;;;;;;-2.77;61.96;100426.50;4930361;28;20027;-95
2023/02/06 00:23:17;;;;;;;6.22;3.35;;;;;;;-2.48;61.09;100461.25;4931472;28;20030;-95
2023/02/06 00:25:44;;;;;;;5.38;3.58;;;;;;;-2.66;61.50;100437.63;4946772;28;20027;-95
2023/02/06 00:28:09;;;;;;;6.30;2.80;;;;;;;-2.58;61.33;100450.00;4945568;28;20426;-95
2023/02/06 00:30:35;;;;;;;4.82;2.83;;;;;;;-2.79;60.67;100434.56;4931132;28;20038;-94
2023/02/06 00:33:00;;;;;;;6.47;3.03;;;;;;;-2.72;61.41;100448.78;4947409;28;20378;-96
2023/02/06 00:35:26;;;;;;;6.85;3.42;;;;;;;-2.80;60.42;100432.06;4946921;28;20038;-95
2023/02/06 00:37:51;;;;;;;5.13;3.00;;;;;;;-2.93;61.19;100433.28;4930118;28;20039;-96
2023/02/06 00:40:17;;;;;;;7.57;3.50;;;;;;;-3.02;62.13;100428.16;4930564;28;20022;-96
2023/02/06 00:42:42;;;;;;;8.07;3.30;;;;;;;-3.01;61.68;100440.31;4931501;28;20466;-95
2023/02/06 00:45:08;;;;;;;5.43;3.10;;;;;;;-3.12;62.53;100430.88;4946593;28;20030;-95
2023/02/06 00:47:34;;;;;;;10.35;3.40;;;;;;;-3.02;61.30;100422.88;4929807;28;20031;-95
2023/02/06 00:50:00;;;;;;;6.25;3.92;;;;;;;-3.11;62.54;100438.63;4947148;28;20031;-95
2023/02/06 00:52:25;;;;;;;9.30;3.75;;;;;;;-3.10;63.42;100442.91;4946664;28;20015;-95
2023/02/06 00:54:51;;;;;;;4.32;2.67;;;;;;;-3.19;62.29;100420.13;4944669;28;20125;-95
2023/02/06 00:57:16;;;;;;;5.50;3.25;;;;;;;-3.16;61.88;100421.63;4945970;28;20113;-95
2023/02/06 00:59:42;;;;;;;4.90;3.08;;;;;;;-3.05;62.37;100445.91;4930415;28;20069;-95
2023/02/06 01:02:07;;;;;;;7.25;3.10;;;;;;;-3.21;62.17;100422.09;4945183;28;20054;-95
2023/02/06 01:04:33;;;;;;;3.70;2.45;;;;;;;-3.32;62.99;100422.31;4944756;28;20588;-95
2023/02/06 01:06:58;;;;;;;6.00;3.15;;;;;;;-3.29;62.48;100429.91;4930535;28;20034;-95
2023/02/06 01:09:24;;;;;;;6.18;3.25;;;;;;;-3.25;63.00;100447.88;4929193;28;20034;-95
2023/02/06 01:11:50;;;;;;;4.82;2.60;;;;;;;-3.39;62.45;100432.63;4947055;28;20397;-95
2023/02/06 01:14:15;;;;;;;6.40;3.40;;;;;;;-3.36;62.46;100445.50;4930679;28;20026;-95
2023/02/06 01:16:43;;;;;;;5.32;3.17;;;;;;;-3.34;62.94;100456.72;4930743;28;20026;-95
2023/02/06 01:19:09;;;;;;;4.55;2.72;;;;;;;-3.45;62.09;100447.22;4945978;28;20041;-96
2023/02/06 01:21:35;;;;;;;5.38;2.83;;;;;;;-3.68;62.97;100417.88;4945783;28;20486;-95
2023/02/06 01:24:00;;;;;;;3.60;2.53;;;;;;;-3.54;63.72;100445.50;4944771;28;20031;-95
2023/02/06 01:26:26;;;;;;;4.30;2.17;;;;;;;-3.53;63.38;100431.38;4929195;28;20030;-94
2023/02/06 01:28:51;;;;;;;5.63;2.70;;;;;;;-3.48;62.61;100415.13;4944758;28;20104;-95
2023/02/06 01:31:17;;;;;;;9.32;3.35;;;;;;;-3.28;62.26;100456.09;4929644;28;20034;-95
2023/02/06 01:33:43;;;;;;;5.72;3.50;;;;;;;-3.31;62.29;100431.88;4960103;28;20401;-95
2023/02/06 01:36:09;;;;;;;4.63;2.92;;;;;;;-3.40;62.23;100427.50;4944972;28;20027;-95
2023/02/06 01:38:34;;;;;;;6.47;3.38;;;;;;;-3.25;61.92;100450.53;4944923;28;20034;-95
2023/02/06 01:41:00;;;;;;;4.57;2.78;;;;;;;-3.25;61.43;100434.72;4929281;28;20097;-95
2023/02/06 01:43:34;;;;;;;5.63;3.53;;;;;;;-3.18;61.04;100444.66;4943993;28;20042;-95
2023/02/06 01:45:59;;;;;;;4.22;3.33;;;;;;;-3.20;61.16;100431.63;4945276;28;20023;-95
2023/02/06 01:48:42;;;;;;;6.50;2.58;;;;;;;-2.89;60.81;100455.72;4944581;28;20126;-95
2023/02/06 01:51:09;;;;;;;;;;;;;;;-2.80;61.14;100459.28;4960826;28;20031;-95
2023/02/06 01:53:34;;;;;;;5.75;3.13;;;;;;;-3.13;61.36;100442.41;4960356;28;20470;-95
2023/02/06 01:56:02;;;;;;;5.97;3.20;;;;;;;-3.08;60.97;100442.75;4929110;28;20034;-95
2023/02/06 01:58:30;;;;;;;4.55;2.88;;;;;;;-2.98;61.46;100437.41;4945171;28;20478;-95
2023/02/06 02:00:56;;;;;;;4.93;2.67;;;;;;;-2.78;61.55;100459.94;4928742;28;20397;-95
2023/02/06 02:03:22;;;;;;;4.40;3.05;;;;;;;-2.71;60.16;100465.41;4944463;28;20038;-96
2023/02/06 02:05:47;;;;;;;5.65;3.20;;;;;;;-2.89;60.46;100439.09;4943750;28;20031;-95
2023/02/06 02:08:25;;;;;;;4.57;2.80;;;;;;;-3.00;61.10;100460.44;4928641;28;20027;-96
2023/02/06 02:10:50;;;;;;;3.58;2.58;;;;;;;-2.90;61.44;100464.63;4944642;28;20090;-96
2023/02/06 02:13:16;;;;;;;2.80;1.70;;;;;;;-2.93;60.12;100466.72;4928467;28;20031;-95
2023/02/06 02:15:56;;;;;;;6.28;2.35;;;;;;;-2.92;60.51;100478.94;4943237;28;20038;-95
2023/02/06 02:18:46;;;;;;;4.40;2.67;;;;;;;-2.74;59.64;100463.06;4959582;28;20170;-95
2023/02/06 02:21:20;;;;;;;5.03;2.20;;;;;;;-2.59;60.71;100487.06;4944347;28;20031;-95
2023/02/06 02:23:51;;;;;;;4.32;2.92;;;;;;;-2.49;60.56;100485.97;4960699;28;20023;-96
2023/02/06 02:26:55;;;;;;;5.53;2.58;;;;;;;-2.44;59.92;100482.88;4959910;28;20031;-95
2023/02/06 02:29:27;;;;;;;3.92;2.47;;;;;;;-2.51;60.42;100487.94;4960008;28;20122;-95
2023/02/06 02:32:29;;;;;;;4.65;2.67;;;;;;;-2.55;59.92;100497.16;4960140;28;20477;-95
2023/02/06 02:35:09;;;;;;;4.70;2.30;;;;;;;-2.99;63.28;100469.97;4959576;28;20462;-96
2023/02/06 02:37:58;;;;;;;3.95;2.17;;;;;;;-2.87;62.61;100490.66;4944996;28;20031;-96
2023/02/06 02:40:29;;;;;;;4.07;2.38;;;;;;;-2.89;62.49;100484.72;4929322;28;20104;-96
2023/02/06 02:43:04;;;;;;;3.13;2.15;;;;;;;-3.12;63.79;100481.75;4944123;28;20038;-93
2023/02/06 02:45:58;;;;;;;4.55;2.38;;;;;;;-2.71;62.11;100516.31;4944130;28;20023;-94
2023/02/06 02:48:26;;;;;;;2.47;1.65;;;;;;;-2.86;62.93;100480.97;4959961;28;20125;-94
2023/02/06 02:50:53;;;;;;;3.75;2.13;;;;;;;-2.70;62.83;100498.69;4928026;28;20037;-96
2023/02/06 02:53:18;;;;;;;5.32;3.05;;;;;;;-2.88;63.83;100475.03;4927404;28;20030;-93
2023/02/06 02:55:44;;;;;;;4.20;2.35;;;;;;;-2.92;64.62;100476.31;4928950;28;20042;-96
2023/02/06 02:58:11;;;;;;;4.82;2.65;;;;;;;-2.96;65.26;100483.69;4943329;28;20074;-96
2023/02/06 03:00:42;;;;;;;2.42;2.03;;;;;;;-2.89;65.76;100478.63;4928236;28;20039;-96
2023/02/06 03:03:09;;;;;;;4.10;2.37;;;;;;;-3.01;65.43;100472.75;4958901;28;20043;-95
2023/02/06 03:05:37;;;;;;;3.47;1.90;;;;;;;-3.02;65.87;100475.56;4928104;28;20043;-95
2023/02/06 03:08:15;;;;;;;3.22;2.33;;;;;;;-3.00;65.32;100471.78;4943770;28;20035;-96
2023/02/06 03:11:03;;;;;;;6.63;2.42;;;;;;;-2.93;65.80;100485.19;4928845;28;20015;-96
2023/02/06 03:13:33;;;;;;;5.25;2.60;;;;;;;-3.01;66.12;100495.66;4945078;28;20026;-96
2023/02/06 03:16:17;;;;;;;4.90;2.58;;;;;;;-3.02;66.37;100483.47;4928145;28;20161;-96
2023/02/06 03:19:08;;;;;;;3.15;2.22;;;;;;;-2.99;68.07;100514.78;4928673;28;20031;-95
2023/02/06 03:21:34;;;;;;;3.13;2.33;;;;;;;-3.12;68.18;100496.72;4946234;28;20038;-95
2023/02/06 03:24:02;;;;;;;4.70;1.75;;;;;;;-3.11;69.04;100508.94;4926696;28;20406;-95
2023/02/06 03:26:28;;;;;;;3.20;2.40;;;;;;;-3.19;68.57;100507.03;4943372;28;20026;-95
2023/02/06 03:28:57;;;;;;;4.70;2.55;;;;;;;-3.16;68.78;100500.63;4927703;28;20022;-95
2023/02/06 03:31:25;;;;;;;2.70;1.67;;;;;;;-3.05;69.57;100510.94;4943045;28;20470;-95
2023/02/06 03:33:54;;;;;;;4.10;2.30;;;;;;;-3.05;68.15;100522.31;4941988;28;20042;-95
2023/02/06 03:36:19;;;;;;;4.68;2.45;;;;;;;-3.14;68.81;100517.94;4943101;28;20555;-95
2023/02/06 03:38:45;;;;;;;3.85;1.92;;;;;;;-3.16;67.80;100490.91;4927488;28;20031;-95
2023/02/06 03:41:11;;;;;;;4.03;2.58;;;;;;;-3.10;67.63;100516.66;4943340;28;20113;-95
2023/02/06 03:43:37;;;;;;;4.30;2.58;;;;;;;-3.09;67.79;100520.13;4926383;28;20108;-95
2023/02/06 03:46:03;;;;;;;4.40;2.13;;;;;;;-3.23;68.20;100516.22;4943142;28;20149;-95
2023/02/06 03:48:34;;;;;;;4.00;1.88;;;;;;;-3.31;68.23;100516.13;4943116;28;20035;-95
2023/02/06 03:51:02;;;;;;;3.72;2.53;;;;;;;-3.32;68.65;100515.31;4943148;28;20031;-94
2023/02/06 03:53:27;;;;;;;3.30;2.05;;;;;;;-3.46;68.86;100500.84;4942168;28;20030;-96
2023/02/06 03:55:54;;;;;;;3.50;2.05;;;;;;;-3.23;69.22;100521.50;4926792;28;20034;-96
2023/02/06 03:58:19;;;;;;;3.88;2.78;;;;;;;-3.38;70.06;100513.28;4943130;28;20069;-95
2023/02/06 04:00:45;;;;;;;3.75;2.20;;;;;;;-3.38;69.53;100509.81;4943258;28;20034;-95
2023/02/06 04:03:10;;;;;;;4.32;2.20;;;;;;;-3.47;70.39;100512.34;4942516;28;20482;-92
2023/02/06 04:05:36;;;;;;;7.35;2.85;;;;;;;-3.30;69.43;100530.94;4942938;28;20410;-94
2023/02/06 04:08:02;;;;;;;5.05;2.97;;;;;;;-3.29;69.79;100538.72;4927296;28;20069;-94
2023/02/06 04:10:27;;;;;;;4.63;2.70;;;;;;;-3.30;69.37;100534.44;4943123;28;20063;-94
2023/02/06 04:12:53;;;;;;;4.28;2.80;;;;;;;-3.38;69.89;100530.88;4926025;28;20101;-95
2023/02/06 04:15:21;;;;;;;3.92;2.97;;;;;;;-3.35;69.98;100541.94;4926927;28;20027;-95
2023/02/06 04:17:46;;;;;;;5.70;3.20;;;;;;;-3.48;70.53;100550.19;4942422;28;20035;-95
2023/02/06 04:20:12;;;;;;;3.90;2.65;;;;;;;-3.46;70.52;100558.78;4926479;28;20081;-94
2023/02/06 04:22:38;;;;;;;6.75;2.78;;;;;;;-3.52;70.40;100540.13;4926177;28;20568;-94
2023/02/06 04:25:04;;;;;;;4.75;3.28;;;;;;;-3.51;70.29;100549.66;4942812;28;20122;-95
2023/02/06 04:27:29;;;;;;;4.18;2.92;;;;;;;-3.63;71.04;100542.94;4942959;28;20046;-96
2023/02/06 04:29:55;;;;;;;7.00;3.92;;;;;;;-3.41;70.85;100546.97;4926083;28;20030;-95
2023/02/06 04:32:21;;;;;;;5.55;3.80;;;;;;;-3.41;71.47;100544.34;4929100;29;20097;-96
2023/02/06 04:34:46;;;;;;;6.45;3.20;;;;;;;-3.31;71.11;100550.38;4923535;29;20032;-95
2023/02/06 04:40:33;;;;;;;5.45;2.75;;;;;;;-3.27;70.74;100563.09;1762371;22;20314;-93
2023/02/06 04:42:59;;;;;;;4.55;3.33;;;;;;;-3.25;70.52;100555.03;4999046;28;20045;-95
2023/02/06 04:45:24;;;;;;;4.38;3.25;;;;;;;-3.29;70.34;100551.06;5004307;28;20014;-95
2023/02/06 04:47:50;;;;;;;6.57;3.38;;;;;;;-3.44;70.66;100534.94;4984157;28;20025;-94
2023/02/06 04:50:16;;;;;;;7.07;3.33;;;;;;;-3.44;70.43;100534.94;4984699;28;20026;-94
2023/02/06 04:52:45;;;;;;;8.23;4.00;;;;;;;-3.45;70.31;100530.63;4985083;28;20113;-94
2023/02/06 04:55:10;;;;;;;9.00;4.55;;;;;;;-3.25;70.34;100552.41;4985309;28;20021;-94
2023/02/06 04:57:36;;;;;;;9.10;4.53;;;;;;;-3.25;69.89;100547.97;4984142;28;20034;-95
2023/02/06 05:31:53;;;;;;;11.18;4.43;;;;;;;-3.08;69.38;100566.56;4994526;28;20074;-96
2023/02/06 05:34:43;;;;;;;6.50;4.20;;;;;;;-3.09;70.26;100571.00;5064151;22;20100;-96
2023/02/06 05:37:28;;;;;;;9.13;5.15;;;;;;;-2.88;69.42;100585.69;5230285;22;20036;-96
2023/02/06 05:40:37;;;;;;;7.63;4.78;;;;;;;-2.70;69.58;100604.97;5070624;22;20068;-96
2023/02/06 05:43:19;;;;;;;8.23;5.07;;;;;;;-2.76;68.80;100595.03;4972811;28;20624;-95
2023/02/06 05:45:50;;;;;;;8.98;4.13;;;;;;;-2.74;69.57;100598.34;4971797;29;20027;-96
2023/02/06 05:48:37;;;;;;;8.25;5.03;;;;;;;-2.60;69.26;100602.22;5119312;22;20038;-96
2023/02/06 05:51:13;;;;;;;8.13;4.75;;;;;;;-2.51;68.72;100598.69;4978492;28;20123;-96
2023/02/06 05:53:40;;;;;;;6.68;4.45;;;;;;;-2.47;68.59;100610.59;4964297;28;20506;-95
2023/02/06 05:56:06;;;;;;;13.70;6.63;;;;;;;-2.59;70.49;100589.88;4938263;29;20051;-95
2023/02/06 05:58:32;;;;;;;10.32;5.38;;;;;;;-2.27;68.57;100613.84;4946853;29;20043;-96
2023/02/06 06:01:00;;;;;;;8.30;5.65;;;;;;;-2.17;67.26;100621.69;4962380;28;20022;-95
2023/02/06 06:03:37;;;;;;;;;;;;;;;;;;;;;
2023/02/06 06:06:13;;;;;;;11.13;5.97;;;;;;;-2.54;66.54;100587.63;5119006;23;20100;-96
2023/02/06 06:08:45;;;;;;;8.18;4.78;;;;;;;-2.23;66.98;100617.03;5010982;28;20053;-95
2023/02/06 06:11:20;;;;;;;6.63;4.20;;;;;;;-2.51;66.43;100601.34;4974738;28;20065;-96
2023/02/06 06:14:28;;;;;;;12.38;4.97;;;;;;;-2.35;67.28;100613.78;4983361;28;20034;-93
2023/02/06 06:16:56;;;;;;;9.13;6.72;;;;;;;-2.29;66.44;100581.53;4976592;28;20042;-91
2023/02/06 06:19:22;;;;;;;35.25;18.15;;;;;;;-2.09;67.37;100597.16;4961902;28;20038;-96
2023/02/06 06:27:10;;;;;;;10.50;5.65;;;;;;;-1.80;65.54;100612.66;5003151;28;20476;-94
2023/02/06 06:29:37;;;;;;;11.38;6.18;;;;;;;-1.66;63.91;100603.31;4958102;28;20026;-96
2023/02/06 06:32:06;;;;;;;19.15;8.13;;;;;;;-1.89;65.03;100600.41;4964074;28;20018;-94
2023/02/06 06:34:37;;;;;;;14.52;6.35;;;;;;;-1.60;65.25;100630.91;4963968;28;20026;-95
2023/02/06 06:37:03;;;;;;;15.25;6.78;;;;;;;-1.64;66.04;100606.63;4974138;28;20117;-94
2023/02/06 06:39:28;;;;;;;9.45;6.57;;;;;;;-1.54;65.75;100612.59;4970316;28;20033;-96
2023/02/06 06:41:54;;;;;;;10.88;6.78;;;;;;;-1.42;65.04;100613.97;4978737;28;20084;-96
2023/02/06 06:44:20;;;;;;;13.13;6.93;;;;;;;-1.48;65.75;100605.88;4973466;28;20459;-95
2023/02/06 06:53:17;;;;;;;9.50;5.35;;;;;;;-1.74;64.24;100612.03;5006311;28;20041;-95
2023/02/06 06:56:05;;;;;;;6.20;4.63;;;;;;;-1.94;65.40;100616.72;4955198;28;20030;-95
2023/02/06 06:58:32;;;;;;;7.43;4.70;;;;;;;-1.99;64.99;100600.53;4988635;28;20056;-96
2023/02/06 07:00:58;;;;;;;11.82;4.55;;;;;;;-1.66;65.76;100635.84;4978671;28;20034;-96
2023/02/06 07:03:32;;;;;;;6.25;4.45;;;;;;;-1.74;64.82;100608.56;4981619;28;20046;-96
2023/02/06 07:19:27;;;;;;;5.88;4.43;;;;;;;-1.21;61.93;100641.78;5022267;28;20068;-95
2023/02/06 07:21:54;;;;;;;8.15;5.18;;;;;;;-1.58;62.76;100603.34;4986287;28;20038;-96
2023/02/06 07:28:02;;;;;;;13.68;5.72;;;;;;;-1.65;63.95;100658.63;4934968;29;20495;-96
2023/02/06 07:30:40;;;;;;;8.27;5.57;;;;;;;-1.61;61.83;100655.69;4916608;29;20144;-96
2023/02/06 07:33:08;;;;;;;9.98;4.32;;;;;;;-1.71;62.50;100624.91;5008658;28;20030;-96
2023/02/06 07:35:37;;;;;;;6.80;3.83;;;;;;;-1.63;62.12;100640.81;4970771;28;20053;-96
2023/02/06 07:38:06;;;;;;;5.45;3.63;;;;;;;-1.45;60.41;100640.72;4987409;28;20022;-96
2023/02/06 07:40:32;;;;;;;7.43;4.38;;;;;;;-1.15;60.56;100666.75;4997514;28;20025;-96
2023/02/06 07:43:04;;;;;;;7.20;4.35;;;;;;;-1.51;61.17;100643.19;5012461;28;20047;-96
2023/02/06 07:45:30;;;;;;;6.55;4.32;;;;;;;-1.46;60.45;100665.47;4994556;28;20018;-96
2023/02/06 07:48:22;;;;;;;9.75;5.25;;;;;;;-1.49;61.22;100647.31;4990138;28;20026;-96
2023/02/06 07:51:29;;;;;;;;;;;;;;;;;;;;;
2023/02/06 07:54:16;;;;;;;6.97;4.82;;;;;;;-1.42;61.83;100656.25;5087998;23;20062;-96
2023/02/06 07:56:41;;;;;;;10.38;6.13;;;;;;;-1.36;62.20;100649.50;4990063;28;20019;-96
2023/02/06 07:59:22;;;;;;;7.60;4.53;;;;;;;-1.34;61.91;100652.81;4982930;28;20053;-96
2023/02/06 08:02:01;;;;;;;7.45;4.63;;;;;;;-1.06;61.62;100684.28;4976464;28;20035;-96
2023/02/06 08:05:20;;;;;;;8.35;4.90;;;;;;;-1.56;64.03;100653.38;4987069;28;20081;-96
2023/02/06 08:08:54;;;;;;;9.43;4.30;;;;;;;-1.40;61.20;100652.63;4979199;28;20039;-96
2023/02/06 08:11:09;;;;;;;7.38;4.50;;;;;;;-1.43;61.19;100685.47;4981000;28;20035;-96
2023/02/06 08:13:39;;;;;;;7.30;4.13;;;;;;;-1.57;60.57;100668.41;4995348;28;20027;-96
2023/02/06 08:16:41;;;;;;;8.63;4.57;;;;;;;-1.50;62.50;100690.53;4980333;28;20034;-96
2023/02/06 08:19:21;;;;;;;7.28;4.32;;;;;;;-1.49;61.95;100675.56;4942317;28;20054;-96
2023/02/06 08:21:51;;;;;;;8.05;4.75;;;;;;;-1.51;63.59;100696.00;4973662;28;20046;-96
2023/02/06 08:24:17;;;;;;;6.53;4.97;;;;;;;-1.39;64.11;100678.91;4987329;28;20038;-96
2023/02/06 08:26:46;;;;;;;9.20;5.60;;;;;;;-1.41;63.37;100675.59;5006493;28;20037;-96
2023/02/06 08:29:21;;;;;;;9.80;5.53;;;;;;;-1.01;62.53;100708.44;5005473;28;20021;-96
2023/02/06 08:34:16;;;;;;;6.82;4.47;;;;;;;-1.02;61.71;100710.28;5016515;28;20060;-96
2023/02/06 08:36:44;;;;;;;10.30;5.45;;;;;;;-1.21;62.36;100705.22;4974398;28;20054;-96
2023/02/06 08:39:47;;;;;;;7.55;3.85;;;;;;;-1.20;62.77;100714.81;5085803;23;20030;-96
2023/02/06 08:44:52;;;;;;;6.00;4.45;;;;;;;-1.14;64.91;100735.31;5460704;22;20288;-96
2023/02/06 08:47:21;;;;;;;7.07;3.90;;;;;;;-1.31;62.51;100707.16;5029447;28;20049;-96
2023/02/06 08:50:02;;;;;;;9.20;5.00;;;;;;;-1.25;63.21;100715.25;5017795;28;20052;-95
2023/02/06 08:52:39;;;;;;;7.75;5.05;;;;;;;-1.27;62.77;100738.38;5040810;28;20060;-96
2023/02/06 08:55:18;;;;;;;7.47;4.90;;;;;;;-1.67;63.36;100744.25;5047950;28;20057;-96
2023/02/06 08:58:05;;;;;;;8.75;5.72;;;;;;;-1.76;63.72;100714.34;5028020;28;20399;-96
2023/02/06 09:00:36;;;;;;;7.50;4.97;;;;;;;-1.86;64.12;100711.78;5006281;28;20065;-96
2023/02/06 09:03:58;;;;;;;10.85;5.47;;;;;;;-1.83;63.86;100716.78;5014285;28;20057;-96
2023/02/06 09:07:02;;;;;;;8.43;5.22;;;;;;;-1.60;64.26;100715.41;5040206;28;20037;-96
2023/02/06 09:24:18;;;;;;;8.43;5.43;;;;;;;-1.36;61.19;100712.09;5099039;23;20121;-96
2023/02/06 09:26:47;;;;;;;8.95;5.25;;;;;;;-1.35;61.01;100717.22;4975522;28;20041;-96
2023/02/06 09:29:22;;;;;;;8.85;5.38;;;;;;;-1.43;60.58;100715.34;4938614;28;20035;-96
2023/02/06 09:32:20;;;;;;;7.82;4.93;;;;;;;-1.31;61.89;100744.97;5296992;23;20073;31
2023/02/06 09:35:17;;;;;;;8.35;4.40;;;;;;;-1.31;59.88;100744.97;4969807;28;20043;-96
2023/02/06 09:37:43;;;;;;;7.80;5.00;;;;;;;-1.71;60.37;100714.69;4934814;28;20075;-93
2023/02/06 10:06:18;;;;;;;16.58;4.93;;;;;;;-1.86;63.12;100713.59;5024104;28;20041;-95
2023/02/06 10:09:34;;;;;;;7.50;4.85;;;;;;;-1.88;63.69;100676.78;5014626;28;20061;-96
2023/02/06 10:12:57;;;;;;;7.78;5.22;;;;;;;-1.86;62.09;100681.94;4948968;29;20031;-96
2023/02/06 10:15:39;;;;;;;13.77;6.20;;;;;;;-1.88;62.77;100705.84;4957426;28;20027;-96
2023/02/06 10:18:38;;;;;;;10.95;5.97;;;;;;;-1.97;63.59;100683.03;4966680;29;20035;-95
2023/02/06 10:21:35;;;;;;;12.88;5.15;;;;;;;-1.75;64.42;100718.63;4948628;29;20102;-96
2023/02/06 10:24:40;;;;;;;6.93;4.45;;;;;;;-1.88;65.29;100711.13;4994742;28;20026;-96
2023/02/06 10:27:11;;;;;;;6.75;4.85;;;;;;;-1.95;66.10;100706.59;4996076;28;20034;-96
2023/02/06 10:29:53;;;;;;;8.88;5.40;;;;;;;-1.75;66.06;100692.22;4975110;28;20038;-96
2023/02/06 10:32:40;;;;;;;13.02;6.05;;;;;;;-1.49;65.68;100712.53;4994859;28;20117;-96
2023/02/06 10:43:11;;;;;;;8.00;5.32;;;;;;;-1.03;62.63;100697.19;4867007;29;20040;-96
2023/02/06 10:56:12;;;;;;;;;;;;;;;;;;;;;
2023/02/06 10:59:27;;;;;;;9.15;5.15;;;;;;;-0.79;62.16;100662.06;4962285;28;20055;-96
2023/02/06 11:38:57;;;;;;;12.55;6.82;;;;;;;-0.97;62.96;100703.66;4992713;28;20046;-96
2023/02/06 11:41:34;;;;;;;7.75;4.57;;;;;;;-1.27;63.87;100682.88;4967810;28;20042;-95
2023/02/06 12:04:32;;;;;;;9.95;5.55;;;;;;;-1.19;64.43;100713.81;4934203;29;20059;-96
2023/02/06 12:07:18;;;;;;;9.63;5.57;;;;;;;-1.26;64.56;100703.06;4929172;29;20111;-96
2023/02/06 12:10:34;;;;;;;7.70;5.22;;;;;;;-1.50;64.33;100677.34;4939730;29;20048;-96
2023/02/06 13:05:40;;;;;;;;;;;;;;;;;;;;;
2023/02/06 13:07:56;;;;;;;9.13;5.13;;;;;;;-0.49;62.10;100755.03;4951892;28;20039;-93
2023/02/06 13:10:51;;;;;;;;;;;;;;;;;;;;;
2023/02/06 13:13:30;;;;;;;15.98;6.50;;;;;;;-0.55;63.21;100764.44;4959968;28;20483;-94
2023/02/06 13:15:56;;;;;;;11.30;5.95;;;;;;;-0.64;62.72;100760.13;4948097;28;20019;-95
2023/02/06 13:18:49;;;;;;;12.00;5.40;;;;;;;-0.56;61.73;100781.31;4968527;28;20032;-96
2023/02/06 13:21:31;;;;;;;;;;;;;;;-0.47;62.78;100771.56;4962419;28;20029;-94
2023/02/06 13:24:02;;;;;;;7.22;4.60;;;;;;;-0.75;62.57;100777.09;4954672;28;19922;-96
2023/02/06 13:54:15;;;;;;;13.82;6.43;;;;;;;-1.46;65.93;100794.91;5011256;28;20160;-96
2023/02/06 13:57:03;;;;;;;13.10;7.68;;;;;;;-1.57;66.37;100789.88;4986425;28;20042;-95
2023/02/06 13:59:51;;;;;;;10.43;6.90;;;;;;;-1.51;66.78;100796.38;4988361;28;20046;-96
2023/02/06 14:02:47;;;;;;;19.88;9.68;;;;;;;-1.61;68.09;100791.19;4975535;28;20042;-96
2023/02/06 14:05:54;;;;;;;13.68;8.18;;;;;;;-1.49;66.96;100789.94;4979006;28;20042;-96
2023/02/06 14:08:50;;;;;;;9.18;5.63;;;;;;;-1.46;66.94;100794.09;4980591;28;20523;-96
2023/02/06 14:15:29;;;;;;;12.75;7.75;;;;;;;-1.50;67.38;100788.28;5014656;28;20053;-96
2023/02/06 14:51:08;;;;;;;10.38;6.15;;;;;;;-1.02;68.26;100797.50;4982895;28;20078;-96
2023/02/06 14:53:51;;;;;;;11.45;6.28;;;;;;;-0.96;65.26;100795.19;4972583;28;20066;-96
2023/02/06 14:59:07;;;;;;;;;;;;;;;;;;;;;
2023/02/06 15:02:08;;;;;;;;;;;;;;;;;;;;;
2023/02/06 15:11:40;;;;;;;26.40;15.95;;;;;;;-1.26;66.34;100779.69;4931576;29;20074;-96
2023/02/06 15:15:01;;;;;;;10.75;6.30;;;;;;;-1.42;66.37;100774.28;4882842;29;20040;-96
2023/02/06 15:17:42;;;;;;;14.98;6.88;;;;;;;-1.54;67.45;100786.09;4860499;29;20061;-96
2023/02/06 15:20:32;;;;;;;15.95;7.20;;;;;;;-1.47;66.83;100817.03;4869071;29;20040;-95
2023/02/06 15:23:06;;;;;;;13.45;7.05;;;;;;;-1.40;67.62;100829.63;4838487;29;20048;-96
2023/02/06 15:25:45;;;;;;;9.88;6.82;;;;;;;-1.47;68.10;100814.38;4836300;29;20189;-95
2023/02/06 15:29:09;;;;;;;16.10;8.40;;;;;;;-1.39;67.20;100810.13;4835276;29;20037;-96
2023/02/06 15:31:35;;;;;;;15.15;7.90;;;;;;;-1.48;67.21;100823.28;4839513;29;20033;-94
2023/02/06 15:34:00;;;;;;;13.15;7.63;;;;;;;-1.33;68.26;100841.22;4837293;29;20140;-94
2023/02/06 15:36:38;;;;;;;11.57;6.43;;;;;;;-1.09;69.62;100870.47;4835061;29;20563;-89
2023/02/06 15:39:10;;;;;;;9.95;6.72;;;;;;;-1.30;71.87;100856.78;4888023;29;20044;-91
2023/02/06 15:41:48;;;;;;;18.35;9.77;;;;;;;-1.39;69.42;100849.75;4909770;29;20058;-92
2023/02/06 15:44:33;;;;;;;13.70;7.55;;;;;;;-1.14;67.15;100869.25;4904563;29;20043;-95
2023/02/06 15:49:53;;;;;;;22.75;13.50;;;;;;;-1.22;67.56;100862.13;4944711;29;20039;-93
2023/02/06 15:52:41;;;;;;;19.33;10.27;;;;;;;-1.24;67.66;100885.22;4910093;28;20027;-94
2023/02/06 15:55:30;;;;;;;9.48;5.50;;;;;;;-1.32;67.07;100886.00;4911107;29;20019;-94
2023/02/06 15:57:56;;;;;;;9.68;5.75;;;;;;;-1.48;67.34;100870.81;4921512;28;20518;-92
2023/02/06 16:00:33;;;;;;;16.38;9.18;;;;;;;-1.59;67.70;100875.53;4942832;28;20056;-94
2023/02/06 16:03:15;;;;;;;18.48;9.02;;;;;;;-1.48;67.99;100901.72;4925942;29;20031;-92
2023/02/06 16:05:41;;;;;;;14.70;7.07;;;;;;;-1.61;67.90;100904.72;4939894;29;20023;-93
2023/02/06 16:08:18;;;;;;;12.60;7.43;;;;;;;-1.69;68.66;100905.47;4908634;29;20410;-92
2023/02/06 16:10:53;;;;;;;10.60;7.53;;;;;;;-1.61;68.82;100919.75;4943078;29;20094;-91
2023/02/06 16:13:26;;;;;;;11.98;7.53;;;;;;;-1.56;68.92;100933.31;4925174;29;20516;-94
2023/02/06 16:16:10;;;;;;;14.98;7.80;;;;;;;-1.49;68.21;100932.59;4939902;29;20019;-95
2023/02/06 16:18:37;;;;;;;9.93;7.28;;;;;;;-1.61;69.17;100925.88;4955965;29;20035;-93
2023/02/06 16:21:16;;;;;;;11.75;6.95;;;;;;;-1.67;68.48;100916.72;4924884;29;20027;-96
2023/02/06 16:23:47;;;;;;;7.63;5.32;;;;;;;-1.48;67.95;100955.34;4924625;29;20027;-93
2023/02/06 16:26:23;;;;;;;9.63;5.53;;;;;;;-1.59;67.79;100952.13;4961505;28;20063;-95
2023/02/06 16:28:57;;;;;;;13.63;7.03;;;;;;;-1.86;68.54;100919.50;4942719;28;20490;-94
2023/02/06 16:31:24;;;;;;;12.43;7.00;;;;;;;-1.60;68.55;100956.56;4941537;29;20418;-93
2023/02/06 16:33:50;;;;;;;14.35;8.82;;;;;;;-1.73;69.60;100949.00;4925321;29;20035;-95
2023/02/06 16:36:25;;;;;;;15.13;7.18;;;;;;;-1.52;69.03;100947.88;4939212;29;20118;-94
2023/02/06 16:38:50;;;;;;;8.85;6.78;;;;;;;-1.73;69.15;100943.72;4923964;28;20031;-95
2023/02/06 16:41:33;;;;;;;14.63;8.63;;;;;;;-1.54;68.79;100960.41;4927020;29;20051;-94
2023/02/06 16:43:59;;;;;;;15.75;8.10;;;;;;;-1.67;68.74;100943.13;4911898;29;20067;-95
2023/02/06 16:46:30;;;;;;;12.07;6.75;;;;;;;-1.71;69.69;100947.03;4917933;29;20039;-95
2023/02/06 16:48:59;;;;;;;14.18;8.10;;;;;;;-1.66;69.96;100954.50;4931911;28;20592;-94
2023/02/06 16:51:26;;;;;;;14.98;8.70;;;;;;;-1.55;69.71;100940.28;4928530;29;20549;-93
2023/02/06 16:53:54;;;;;;;13.73;7.22;;;;;;;-1.45;69.19;100947.16;4929207;28;20038;-93
2023/02/06 16:56:20;;;;;;;17.70;7.50;;;;;;;-1.32;68.19;100948.56;4928693;28;20039;-93
2023/02/06 16:58:45;;;;;;;12.23;6.70;;;;;;;-1.19;67.67;100958.75;4933786;29;20495;-92
2023/02/06 17:01:23;;;;;;;12.85;6.78;;;;;;;-1.23;66.74;100955.59;4944671;28;20023;-93
2023/02/06 17:03:50;;;;;;;14.95;8.27;;;;;;;-1.12;66.62;100967.72;4937585;29;20030;-93
2023/02/06 17:06:22;;;;;;;22.40;7.55;;;;;;;-1.43;68.34;100957.56;4933528;28;20027;-94
2023/02/06 17:08:47;;;;;;;11.20;6.95;;;;;;;-1.67;69.27;100974.81;4946336;28;20037;-92
2023/02/06 17:11:13;;;;;;;19.98;9.63;;;;;;;-1.66;70.29;100983.56;4933012;29;20055;-92
2023/02/06 17:13:41;;;;;;;11.27;6.85;;;;;;;-1.65;70.53;100972.84;4919263;29;20023;-93
2023/02/06 17:16:13;;;;;;;14.20;7.65;;;;;;;-1.51;68.51;100960.13;4943135;28;20034;-92
2023/02/06 17:18:38;;;;;;;16.08;9.10;;;;;;;-1.54;68.38;100961.25;4923537;29;20406;-92
2023/02/06 17:21:04;;;;;;;22.75;9.40;;;;;;;-1.75;68.76;100952.78;4929515;28;20023;-93